Time;durP1;ratioP1;P1;durP2;ratioP2;P2;SDS_P1;SDS_P2;PMS_P1;PMS_P2;Temp;Humidity;BMP_temperature;BMP_pressure;BME280_temperature;BME280_humidity;BME280_pressure;Samples;Min_cycle;Max_cycle;Signal;HPM_P1;HPM_P2
2023/10/24 00:00:52;;;;;;;25.48;12.20;;;16.80;99.90;;;;;;5068556;28;20043;-76
2023/10/24 00:03:20;;;;;;;23.42;10.63;;;16.70;99.90;;;;;;5067022;28;20064;-76
2023/10/24 00:05:48;;;;;;;25.52;10.63;;;16.70;99.90;;;;;;5065439;28;20083;-74
2023/10/24 00:08:15;;;;;;;25.95;10.55;;;16.80;99.90;;;;;;5069561;28;20098;-75
2023/10/24 00:10:42;;;;;;;21.05;10.77;;;16.70;99.90;;;;;;5066309;28;20163;-73
2023/10/24 00:13:10;;;;;;;20.80;10.55;;;16.70;99.90;;;;;;5068549;28;20460;-73
2023/10/24 00:15:37;;;;;;;24.25;9.57;;;16.80;99.90;;;;;;5066982;28;20120;-73
2023/10/24 00:18:04;;;;;;;22.30;10.52;;;16.70;99.90;;;;;;5048316;28;20032;-75
2023/10/24 00:20:31;;;;;;;26.67;11.57;;;16.60;99.90;;;;;;5060095;28;20036;-74
2023/10/24 00:22:59;;;;;;;21.85;9.20;;;16.60;99.90;;;;;;5062796;28;20047;-75
2023/10/24 00:25:26;;;;;;;20.83;9.48;;;16.50;99.90;;;;;;5057388;28;20108;-72
2023/10/24 00:27:53;;;;;;;24.13;7.93;;;16.60;99.90;;;;;;5063034;28;20451;-74
2023/10/24 00:30:20;;;;;;;17.85;9.00;;;16.60;99.90;;;;;;5062044;28;20057;-75
2023/10/24 00:32:49;;;;;;;18.17;8.00;;;16.50;99.90;;;;;;5061505;28;20045;-74
2023/10/24 00:35:18;;;;;;;20.35;8.93;;;16.40;99.90;;;;;;5064587;28;20082;-77
2023/10/24 00:37:45;;;;;;;24.23;7.90;;;16.40;99.90;;;;;;5059169;28;20042;-77
2023/10/24 00:40:12;;;;;;;24.27;8.10;;;16.20;99.90;;;;;;5061856;28;20065;-77
2023/10/24 00:42:40;;;;;;;19.77;7.30;;;16.20;99.90;;;;;;5064611;28;20041;-75
2023/10/24 00:45:07;;;;;;;15.50;7.65;;;16.30;99.90;;;;;;5087240;28;20040;-75
2023/10/24 00:47:35;;;;;;;17.95;7.53;;;16.00;99.90;;;;;;5048104;28;20051;-75
2023/10/24 00:50:02;;;;;;;19.65;8.75;;;16.10;99.90;;;;;;5089512;28;20043;-74
2023/10/24 00:52:30;;;;;;;14.25;7.30;;;16.10;99.90;;;;;;5055791;28;20040;-77
2023/10/24 00:54:57;;;;;;;18.45;8.48;;;16.30;99.90;;;;;;5089875;28;20144;-74
2023/10/24 00:57:25;;;;;;;19.33;7.22;;;16.20;99.90;;;;;;5084837;28;20028;-73
2023/10/24 00:59:53;;;;;;;19.80;8.15;;;16.20;99.90;;;;;;5089517;28;20044;-74
2023/10/24 01:02:21;;;;;;;19.08;8.15;;;16.10;99.90;;;;;;5086411;28;20379;-74
2023/10/24 01:04:52;;;;;;;15.38;7.47;;;16.10;99.90;;;;;;5085776;28;20048;-74
2023/10/24 01:07:20;;;;;;;19.20;7.88;;;15.80;99.90;;;;;;5086954;28;20504;-74
2023/10/24 01:09:47;;;;;;;16.67;8.82;;;15.90;99.90;;;;;;5085674;28;20043;-75
2023/10/24 01:12:15;;;;;;;21.02;8.02;;;16.00;99.90;;;;;;5083828;28;20491;-75
2023/10/24 01:14:43;;;;;;;23.80;8.43;;;16.10;99.90;;;;;;5088648;28;20059;-75
2023/10/24 01:17:11;;;;;;;16.27;7.88;;;16.20;99.90;;;;;;5058516;28;20044;-76
2023/10/24 01:19:38;;;;;;;17.13;8.00;;;16.20;99.90;;;;;;5083056;28;20127;-74
2023/10/24 01:22:06;;;;;;;21.65;8.23;;;16.10;99.90;;;;;;5087790;28;20062;-76
2023/10/24 01:24:33;;;;;;;16.17;7.63;;;16.20;99.90;;;;;;5085658;28;20083;-75
2023/10/24 01:27:00;;;;;;;23.25;8.35;;;16.20;99.90;;;;;;5084349;28;20049;-75
2023/10/24 01:29:27;;;;;;;19.02;7.53;;;16.10;99.90;;;;;;5089024;28;20403;-74
2023/10/24 01:31:55;;;;;;;22.30;8.45;;;16.10;99.90;;;;;;5086696;28;20043;-74
2023/10/24 01:34:22;;;;;;;15.52;8.20;;;16.10;99.90;;;;;;5072052;28;20048;-73
2023/10/24 01:36:50;;;;;;;18.38;9.57;;;16.10;99.90;;;;;;5088064;28;20560;-73
2023/10/24 01:39:17;;;;;;;16.77;8.23;;;16.10;99.90;;;;;;5088575;28;20066;-73
2023/10/24 01:41:44;;;;;;;25.77;9.15;;;15.90;99.90;;;;;;5071741;28;20068;-73
2023/10/24 01:44:11;;;;;;;21.38;8.52;;;15.70;99.90;;;;;;5091070;28;20044;-72
2023/10/24 01:46:38;;;;;;;21.10;8.07;;;15.50;99.90;;;;;;5087310;28;20040;-74
2023/10/24 01:49:06;;;;;;;23.08;9.07;;;15.50;99.90;;;;;;5088771;28;20119;-73
2023/10/24 01:51:35;;;;;;;19.70;8.27;;;15.40;99.90;;;;;;5091797;28;20115;-73
2023/10/24 01:54:02;;;;;;;16.55;8.38;;;15.50;99.90;;;;;;5067601;28;20040;-73
2023/10/24 01:56:29;;;;;;;16.73;8.13;;;15.50;99.90;;;;;;5087471;28;20039;-75
2023/10/24 01:58:56;;;;;;;20.63;8.40;;;15.40;99.90;;;;;;5087547;28;20047;-75
2023/10/24 02:01:23;;;;;;;17.42;10.20;;;15.60;99.90;;;;;;5088949;28;20043;-74
2023/10/24 02:03:51;;;;;;;18.45;8.60;;;15.40;99.90;;;;;;5083471;28;20036;-74
2023/10/24 02:06:18;;;;;;;21.60;8.35;;;15.60;99.90;;;;;;5088677;28;20043;-74
2023/10/24 02:08:45;;;;;;;26.40;8.95;;;15.20;99.90;;;;;;5085094;28;20040;-73
2023/10/24 02:11:12;;;;;;;23.65;8.95;;;15.50;99.90;;;;;;5068493;28;20038;-74
2023/10/24 02:13:40;;;;;;;22.08;9.27;;;15.20;99.90;;;;;;5085379;28;20040;-73
2023/10/24 02:16:07;;;;;;;18.42;8.77;;;15.40;99.90;;;;;;5071151;28;20456;-74
2023/10/24 02:18:34;;;;;;;14.68;8.40;;;15.60;99.90;;;;;;5083305;28;20040;-72
2023/10/24 02:21:07;;;;;;;16.42;8.63;;;15.70;99.90;;;;;;5073262;28;20043;-73
2023/10/24 02:23:37;;;;;;;19.70;8.10;;;15.80;99.90;;;;;;5085857;28;20048;-73
2023/10/24 02:26:04;;;;;;;20.90;8.43;;;15.70;99.90;;;;;;5084871;28;20426;-74
2023/10/24 02:28:32;;;;;;;22.65;7.68;;;15.80;99.90;;;;;;5087886;28;20403;-74
2023/10/24 02:31:02;;;;;;;24.05;8.07;;;15.80;99.90;;;;;;5085002;28;20379;-72
2023/10/24 02:33:30;;;;;;;;;;;15.50;99.90;;;;;;5083707;28;20040;-74
2023/10/24 02:36:14;;;;;;;17.00;9.10;;;15.50;99.90;;;;;;5084589;28;19920;-72
2023/10/24 02:38:42;;;;;;;19.50;9.65;;;15.50;99.90;;;;;;5086663;28;20046;-74
2023/10/24 02:41:09;;;;;;;17.15;8.77;;;15.60;99.90;;;;;;5080441;28;20399;-72
2023/10/24 02:43:37;;;;;;;17.38;7.90;;;15.60;99.90;;;;;;5088515;28;20048;-73
2023/10/24 02:46:06;;;;;;;21.40;8.10;;;15.60;99.90;;;;;;5086047;28;20047;-75
2023/10/24 02:48:33;;;;;;;17.20;8.55;;;15.60;99.90;;;;;;5084674;28;20531;-75
2023/10/24 02:51:01;;;;;;;14.15;7.75;;;15.60;99.90;;;;;;5088130;28;20113;-74
2023/10/24 02:53:29;;;;;;;21.20;8.93;;;15.70;99.90;;;;;;5087714;28;20395;-73
2023/10/24 02:56:02;;;;;;;19.08;8.40;;;15.50;99.90;;;;;;5085273;28;20127;-73
2023/10/24 02:58:29;;;;;;;18.98;9.70;;;15.40;99.90;;;;;;5085297;28;20114;-73
2023/10/24 03:01:03;;;;;;;21.83;8.82;;;15.40;99.90;;;;;;5088070;28;20028;-73
2023/10/24 03:03:32;;;;;;;15.05;8.27;;;15.50;99.90;;;;;;5088194;28;20051;-74
2023/10/24 03:05:59;;;;;;;17.38;8.68;;;15.60;99.90;;;;;;5087574;28;20036;-74
2023/10/24 03:08:27;;;;;;;21.02;9.43;;;15.50;99.90;;;;;;5091867;28;20047;-73
2023/10/24 03:10:54;;;;;;;18.67;8.30;;;15.50;99.90;;;;;;5087005;28;20067;-75
2023/10/24 03:13:21;;;;;;;19.45;8.10;;;15.40;99.90;;;;;;5069347;28;20047;-74
2023/10/24 03:15:48;;;;;;;20.80;9.27;;;15.50;99.90;;;;;;5088629;28;20101;-74
2023/10/24 03:18:15;;;;;;;20.38;9.65;;;15.40;99.90;;;;;;5071615;28;20036;-72
2023/10/24 03:20:43;;;;;;;18.95;8.80;;;15.30;99.90;;;;;;5086164;28;20048;-75
2023/10/24 03:23:10;;;;;;;22.27;9.52;;;15.10;99.90;;;;;;5065703;28;20045;-73
2023/10/24 03:25:42;;;;;;;22.83;8.90;;;14.90;99.90;;;;;;5086122;28;20127;-75
2023/10/24 03:28:09;;;;;;;21.08;8.77;;;15.00;99.90;;;;;;5085215;28;20468;-75
2023/10/24 03:30:36;;;;;;;19.15;9.13;;;14.80;99.90;;;;;;5089545;28;20066;-74
2023/10/24 03:33:03;;;;;;;19.52;9.52;;;14.80;99.90;;;;;;5086507;28;20454;-72
2023/10/24 03:35:33;;;;;;;19.85;8.68;;;15.00;99.90;;;;;;5088222;28;20052;-73
2023/10/24 03:38:01;;;;;;;19.27;8.45;;;15.10;99.90;;;;;;5071067;28;20402;-72
2023/10/24 03:40:28;;;;;;;17.17;8.27;;;15.10;99.90;;;;;;5090930;28;20036;-73
2023/10/24 03:42:56;;;;;;;20.75;9.07;;;14.80;99.90;;;;;;5066274;28;20036;-72
2023/10/24 03:45:23;;;;;;;21.58;7.72;;;14.80;99.90;;;;;;5089044;28;20042;-73
2023/10/24 03:47:52;;;;;;;18.13;7.70;;;14.70;99.90;;;;;;5089157;28;20456;-73
2023/10/24 03:50:19;;;;;;;17.35;6.88;;;14.60;99.90;;;;;;5088355;28;20039;-75
2023/10/24 03:52:48;;;;;;;15.15;7.18;;;14.60;99.90;;;;;;5087824;28;20459;-74
2023/10/24 03:55:15;;;;;;;16.55;6.95;;;14.60;99.90;;;;;;5087890;28;20399;-75
2023/10/24 03:57:43;;;;;;;16.40;6.15;;;14.40;99.90;;;;;;5082753;28;20041;-75
2023/10/24 04:00:10;;;;;;;19.48;7.30;;;14.50;99.90;;;;;;5088721;28;20040;-75
2023/10/24 04:02:38;;;;;;;16.55;6.57;;;14.50;99.90;;;;;;5088583;28;20036;-75
2023/10/24 04:05:09;;;;;;;16.30;7.28;;;14.60;99.90;;;;;;5086955;28;20123;-73
2023/10/24 04:07:36;;;;;;;13.88;6.50;;;14.50;99.90;;;;;;5085394;28;20395;-73
2023/10/24 04:10:04;;;;;;;17.58;7.00;;;14.60;99.90;;;;;;5071188;28;20510;-74
2023/10/24 04:12:31;;;;;;;13.30;6.78;;;14.70;99.90;;;;;;5083180;28;20056;-74
2023/10/24 04:14:59;;;;;;;15.45;7.53;;;14.70;99.90;;;;;;5068356;28;20147;-74
2023/10/24 04:17:26;;;;;;;14.38;7.13;;;14.70;99.90;;;;;;5089447;28;20047;-75
2023/10/24 04:19:54;;;;;;;14.55;6.85;;;14.50;99.90;;;;;;5084480;28;20044;-74
2023/10/24 04:22:21;;;;;;;19.25;6.97;;;14.40;99.90;;;;;;5086996;28;20063;-75
2023/10/24 04:24:48;;;;;;;15.55;7.82;;;14.40;99.90;;;;;;5069300;28;20398;-75
2023/10/24 04:27:16;;;;;;;17.73;7.65;;;14.40;99.90;;;;;;5085366;28;20461;-75
2023/10/24 04:29:44;;;;;;;18.17;6.55;;;14.50;99.90;;;;;;5080459;28;20036;-75
2023/10/24 04:32:12;;;;;;;17.25;6.88;;;14.40;99.90;;;;;;5085071;28;20040;-76
2023/10/24 04:34:39;;;;;;;13.15;6.30;;;14.20;99.90;;;;;;5062329;28;20482;-72
2023/10/24 04:37:06;;;;;;;12.93;6.53;;;14.20;99.90;;;;;;5088376;28;20084;-72
2023/10/24 04:39:34;;;;;;;16.77;6.95;;;14.30;99.90;;;;;;5087764;28;20040;-72
2023/10/24 04:42:01;;;;;;;12.27;6.65;;;14.20;99.90;;;;;;5064349;28;20822;-74
2023/10/24 04:44:28;;;;;;;17.08;7.18;;;14.20;99.90;;;;;;5079936;28;20135;-72
2023/10/24 04:46:55;;;;;;;15.25;6.70;;;14.20;99.90;;;;;;5085698;28;20052;-73
2023/10/24 04:49:40;;;;;;;18.02;6.40;;;14.20;99.90;;;;;;5078792;28;20104;-72
2023/10/24 04:52:07;;;;;;;15.70;6.78;;;14.40;99.90;;;;;;5087160;28;20486;-75
2023/10/24 04:54:35;;;;;;;18.15;8.25;;;14.20;99.90;;;;;;5086477;28;20439;-75
2023/10/24 04:57:02;;;;;;;19.38;7.82;;;14.20;99.90;;;;;;5087459;28;20036;-74
2023/10/24 04:59:29;;;;;;;17.77;8.68;;;14.10;99.90;;;;;;5083893;28;20402;-73
2023/10/24 05:01:56;;;;;;;15.68;8.45;;;14.10;99.90;;;;;;5088006;28;20040;-75
2023/10/24 05:04:24;;;;;;;69.43;37.05;;;14.00;99.90;;;;;;5078008;28;20037;-75
2023/10/24 05:06:51;;;;;;;23.45;13.07;;;14.10;99.90;;;;;;5082392;28;20044;-73
2023/10/24 05:09:18;;;;;;;18.33;10.35;;;14.10;99.90;;;;;;5085331;28;20036;-73
2023/10/24 05:11:45;;;;;;;19.27;9.02;;;14.40;99.90;;;;;;5084020;28;20482;-71
2023/10/24 05:14:13;;;;;;;15.73;8.45;;;14.50;99.90;;;;;;5085627;28;20047;-74
2023/10/24 05:16:43;;;;;;;22.77;10.60;;;14.50;99.90;;;;;;5084057;28;20036;-75
2023/10/24 05:19:10;;;;;;;23.95;10.43;;;14.60;99.90;;;;;;5078362;28;20043;-74
2023/10/24 05:21:37;;;;;;;35.92;20.98;;;14.60;99.90;;;;;;5081903;28;20047;-75
2023/10/24 05:24:05;;;;;;;62.63;34.67;;;14.60;99.90;;;;;;5089049;28;20084;-73
2023/10/24 05:26:32;;;;;;;35.80;19.98;;;14.40;99.90;;;;;;5079234;28;20105;-75
2023/10/24 05:28:59;;;;;;;21.75;10.63;;;14.40;99.90;;;;;;5085406;28;20039;-74
2023/10/24 05:31:26;;;;;;;18.70;9.10;;;14.60;99.90;;;;;;5084314;28;20125;-75
2023/10/24 05:33:53;;;;;;;28.40;14.23;;;14.60;99.90;;;;;;5085667;28;20518;-73
2023/10/24 05:36:21;;;;;;;47.83;27.02;;;14.50;99.90;;;;;;5086806;28;20036;-73
2023/10/24 05:38:48;;;;;;;23.63;12.07;;;14.70;99.90;;;;;;5087079;28;20071;-74
2023/10/24 05:41:15;;;;;;;19.33;9.77;;;14.70;99.90;;;;;;5082329;28;20032;-75
2023/10/24 05:43:42;;;;;;;15.27;8.77;;;14.80;99.90;;;;;;5082813;28;20056;-72
2023/10/24 05:46:10;;;;;;;18.38;8.30;;;14.80;99.90;;;;;;5087005;28;20518;-73
2023/10/24 05:48:38;;;;;;;20.27;8.20;;;14.80;99.90;;;;;;5085743;28;20070;-73
2023/10/24 05:51:09;;;;;;;16.73;8.27;;;14.90;99.90;;;;;;5089079;28;20066;-76
2023/10/24 05:53:37;;;;;;;17.42;7.63;;;15.00;99.90;;;;;;5074476;28;20044;-74
2023/10/24 05:56:04;;;;;;;14.50;9.32;;;15.10;99.90;;;;;;5088911;28;20040;-74
2023/10/24 05:58:31;;;;;;;20.33;9.00;;;15.10;99.90;;;;;;5085720;28;20394;-75
2023/10/24 06:00:58;;;;;;;20.90;9.85;;;15.00;99.90;;;;;;5084833;28;20032;-74
2023/10/24 06:03:26;;;;;;;24.35;9.65;;;15.10;99.90;;;;;;5085330;28;20115;-73
2023/10/24 06:05:53;;;;;;;17.05;8.82;;;15.30;99.90;;;;;;5081494;28;20075;-74
2023/10/24 06:08:20;;;;;;;23.20;9.40;;;15.30;99.90;;;;;;5085164;28;20032;-79
2023/10/24 06:10:58;;;;;;;21.45;9.63;;;15.10;99.90;;;;;;5079621;28;20422;-76
2023/10/24 06:13:26;;;;;;;20.33;9.00;;;15.20;99.90;;;;;;5080547;28;20039;-78
2023/10/24 06:15:54;;;;;;;18.27;8.70;;;15.30;99.90;;;;;;5083281;28;20163;-78
2023/10/24 06:18:21;;;;;;;19.35;9.10;;;15.30;99.90;;;;;;5087343;28;20044;-78
2023/10/24 06:20:52;;;;;;;20.13;9.32;;;15.20;99.90;;;;;;5083156;28;20029;-80
2023/10/24 06:23:20;;;;;;;22.23;9.60;;;15.30;99.90;;;;;;5085098;28;20044;-76
2023/10/24 06:25:47;;;;;;;16.02;9.05;;;15.40;99.90;;;;;;5085175;28;20072;-79
2023/10/24 06:28:14;;;;;;;18.25;9.35;;;15.50;99.90;;;;;;5080574;28;20392;-79
2023/10/24 06:30:42;;;;;;;24.88;9.95;;;15.60;99.90;;;;;;5083986;28;20102;-77
2023/10/24 06:33:09;;;;;;;22.30;9.20;;;15.70;99.90;;;;;;5089716;28;20039;-79
2023/10/24 06:35:36;;;;;;;23.40;9.15;;;15.70;99.90;;;;;;5085804;28;20143;-76
2023/10/24 06:38:03;;;;;;;15.93;8.73;;;15.70;99.90;;;;;;5086751;28;20032;-82
2023/10/24 06:40:30;;;;;;;18.88;8.07;;;15.90;99.90;;;;;;5088024;28;20049;-77
2023/10/24 06:42:58;;;;;;;25.38;8.43;;;15.80;99.90;;;;;;5065603;28;20097;-77
2023/10/24 06:45:26;;;;;;;15.25;7.60;;;15.80;99.90;;;;;;5088890;28;20032;-78
2023/10/24 06:47:56;;;;;;;15.80;7.88;;;15.80;99.90;;;;;;5072454;28;20563;-77
2023/10/24 06:50:23;;;;;;;17.88;8.73;;;15.90;99.90;;;;;;5087313;28;20125;-78
2023/10/24 06:52:51;;;;;;;19.92;8.60;;;15.90;99.90;;;;;;5085375;28;20044;-76
2023/10/24 06:55:18;;;;;;;18.25;8.82;;;15.90;99.90;;;;;;5071984;28;20528;-78
2023/10/24 06:57:45;;;;;;;18.98;8.07;;;15.90;99.90;;;;;;5089123;28;20520;-77
2023/10/24 07:00:13;;;;;;;26.20;11.15;;;16.00;99.90;;;;;;5089572;28;20173;-77
2023/10/24 07:02:40;;;;;;;23.35;11.60;;;16.00;99.90;;;;;;5090446;28;20412;-78
2023/10/24 07:05:07;;;;;;;18.75;10.20;;;16.10;99.90;;;;;;5091806;28;20040;-78
2023/10/24 07:07:38;;;;;;;20.38;9.38;;;16.20;99.90;;;;;;5070688;28;20403;-77
2023/10/24 07:10:07;;;;;;;28.38;11.02;;;16.30;99.90;;;;;;5070128;28;20044;-78
2023/10/24 07:12:34;;;;;;;22.48;9.98;;;16.40;99.90;;;;;;5084610;28;20032;-78
2023/10/24 07:15:03;;;;;;;26.85;10.20;;;16.50;99.90;;;;;;5091171;28;20043;-76
2023/10/24 07:17:32;;;;;;;19.40;9.23;;;16.60;99.90;;;;;;5090907;28;20044;-78
2023/10/24 07:19:59;;;;;;;21.35;9.18;;;16.60;99.90;;;;;;5087033;28;20067;-77
2023/10/24 07:22:28;;;;;;;18.83;8.80;;;16.60;99.90;;;;;;5091227;28;20032;-78
2023/10/24 07:24:56;;;;;;;18.67;9.07;;;16.70;99.90;;;;;;5086486;28;20037;-75
2023/10/24 07:27:23;;;;;;;20.67;8.20;;;16.40;99.90;;;;;;5084410;28;20043;-79
2023/10/24 07:29:50;;;;;;;16.67;7.90;;;16.60;99.90;;;;;;5087151;28;20460;-78
2023/10/24 07:32:17;;;;;;;17.83;8.43;;;16.70;99.90;;;;;;5086561;28;20036;-78
2023/10/24 07:34:48;;;;;;;18.00;8.25;;;16.80;99.90;;;;;;5084259;28;20048;-76
2023/10/24 07:37:15;;;;;;;15.93;9.02;;;17.00;99.90;;;;;;5088393;28;20077;-77
2023/10/24 07:39:45;;;;;;;19.08;8.80;;;17.20;99.90;;;;;;5088352;28;20044;-77
2023/10/24 07:42:12;;;;;;;21.15;8.80;;;17.10;99.90;;;;;;5088248;28;20404;-77
2023/10/24 07:44:39;;;;;;;26.17;8.80;;;17.00;99.90;;;;;;5083307;28;20056;-77
2023/10/24 07:47:07;;;;;;;16.55;8.57;;;17.30;99.90;;;;;;5090297;28;20069;-78
2023/10/24 07:49:35;;;;;;;26.65;9.43;;;17.40;99.90;;;;;;5090940;28;20044;-79
2023/10/24 07:52:03;;;;;;;26.58;15.18;;;17.60;99.90;;;;;;5085049;28;20499;-78
2023/10/24 07:54:31;;;;;;;23.00;11.18;;;17.80;99.90;;;;;;5059238;28;20080;-76
2023/10/24 07:56:59;;;;;;;23.55;11.02;;;17.90;99.90;;;;;;5060183;28;20105;-80
2023/10/24 07:59:30;;;;;;;23.15;10.50;;;17.80;99.90;;;;;;5078887;28;20051;-76
2023/10/24 08:01:59;;;;;;;19.35;11.25;;;17.90;99.90;;;;;;5082614;28;20045;-77
2023/10/24 08:04:26;;;;;;;21.20;9.13;;;18.40;99.90;;;;;;5087677;28;20439;-82
2023/10/24 08:06:56;;;;;;;19.83;9.52;;;18.40;99.90;;;;;;5061734;28;20044;-80
2023/10/24 08:09:23;;;;;;;17.30;9.18;;;18.30;99.90;;;;;;5084506;28;20043;-78
2023/10/24 08:11:50;;;;;;;22.40;9.80;;;18.40;99.90;;;;;;5082767;28;20033;-77
2023/10/24 08:14:18;;;;;;;23.35;11.52;;;18.60;99.90;;;;;;5080211;28;20036;-81
2023/10/24 08:16:45;;;;;;;23.48;11.60;;;18.60;99.90;;;;;;5085466;28;20044;-79
2023/10/24 08:19:13;;;;;;;19.45;10.27;;;18.60;99.90;;;;;;5079118;28;20201;-79
2023/10/24 08:21:40;;;;;;;22.40;9.65;;;18.70;99.90;;;;;;5077308;28;20111;-79
2023/10/24 08:24:07;;;;;;;22.73;10.07;;;18.70;99.90;;;;;;5085145;28;20403;-76
2023/10/24 08:26:34;;;;;;;21.63;8.95;;;18.80;99.90;;;;;;5081866;28;20435;-76
2023/10/24 08:29:01;;;;;;;17.27;8.45;;;18.90;99.90;;;;;;5080581;28;20036;-78
2023/10/24 08:31:28;;;;;;;22.80;9.68;;;19.10;99.90;;;;;;5085393;28;20051;-79
2023/10/24 08:33:56;;;;;;;21.27;9.52;;;19.20;99.90;;;;;;5059622;28;20029;-78
2023/10/24 08:36:41;;;;;;;22.08;10.35;;;19.50;99.90;;;;;;5072589;28;20034;-75
2023/10/24 08:39:08;;;;;;;20.17;10.27;;;19.50;99.90;;;;;;5084436;28;20036;-78
2023/10/24 08:41:35;;;;;;;20.60;9.23;;;19.50;99.90;;;;;;5083114;28;20036;-80
2023/10/24 08:44:22;;;;;;;19.38;9.13;;;19.60;99.90;;;;;;5081816;28;20070;-80
2023/10/24 08:46:50;;;;;;;21.73;9.18;;;19.50;99.90;;;;;;5089702;28;20047;-80
2023/10/24 08:49:19;;;;;;;17.15;8.38;;;19.70;99.90;;;;;;5048876;28;20055;-77
2023/10/24 08:51:47;;;;;;;18.55;8.20;;;19.90;99.90;;;;;;5086671;28;20372;-80
2023/10/24 08:54:19;;;;;;;15.63;8.02;;;20.10;99.90;;;;;;5079238;28;20060;-76
2023/10/24 08:56:47;;;;;;;18.15;8.57;;;20.00;99.90;;;;;;5067540;28;20048;-76
2023/10/24 08:59:19;;;;;;;19.55;8.95;;;20.30;99.90;;;;;;5087547;28;20101;-77
2023/10/24 09:01:50;;;;;;;24.40;8.23;;;20.40;99.90;;;;;;5085894;28;20557;-76
2023/10/24 09:04:17;;;;;;;22.67;10.00;;;20.30;99.90;;;;;;5084017;28;20159;-74
2023/10/24 09:06:46;;;;;;;17.27;8.18;;;20.30;99.90;;;;;;5085807;28;20410;-78
2023/10/24 09:09:15;;;;;;;20.75;8.80;;;20.30;99.90;;;;;;5080302;28;20039;-77
2023/10/24 09:11:55;;;;;;;16.50;8.50;;;20.20;99.90;;;;;;5087465;28;20044;-77
2023/10/24 09:14:28;;;;;;;15.75;8.43;;;20.20;99.90;;;;;;5066750;28;20044;-77
2023/10/24 09:17:15;;;;;;;22.05;7.65;;;20.40;99.90;;;;;;5086874;28;20043;-77
2023/10/24 09:19:43;;;;;;;20.15;8.25;;;20.70;99.90;;;;;;5084095;28;20537;-80
2023/10/24 09:22:17;;;;;;;18.08;7.78;;;20.60;99.90;;;;;;5080699;28;20040;-78
2023/10/24 09:24:46;;;;;;;15.75;7.72;;;20.60;99.90;;;;;;5088340;28;20036;-79
2023/10/24 09:27:14;;;;;;;23.40;8.40;;;20.90;99.90;;;;;;5089581;28;20119;-78
2023/10/24 09:29:42;;;;;;;18.58;8.13;;;21.30;99.90;;;;;;5081857;28;20487;-79
2023/10/24 09:32:17;;;;;;;18.58;7.50;;;21.20;99.90;;;;;;5086769;28;20037;-77
2023/10/24 09:34:47;;;;;;;20.20;8.85;;;21.00;99.90;;;;;;5061946;28;20045;-79
2023/10/24 09:37:16;;;;;;;20.00;8.57;;;21.30;99.90;;;;;;5081941;28;20063;-77
2023/10/24 09:39:55;;;;;;;15.38;8.00;;;21.70;99.90;;;;;;5084249;28;20123;-77
2023/10/24 09:42:30;;;;;;;18.38;8.52;;;21.70;99.90;;;;;;5085127;28;20071;-77
2023/10/24 09:45:07;;;;;;;18.20;8.32;;;21.60;99.90;;;;;;5086515;28;20395;-79
2023/10/24 09:47:37;;;;;;;18.52;7.82;;;21.50;99.90;;;;;;5084513;28;20040;-80
2023/10/24 09:50:11;;;;;;;20.70;7.35;;;22.00;99.90;;;;;;5060540;28;20028;-82
2023/10/24 09:52:41;;;;;;;25.60;15.13;;;22.20;99.90;;;;;;5070951;28;20557;-74
2023/10/24 09:55:09;;;;;;;29.92;15.55;;;21.90;99.90;;;;;;5091704;28;20387;-74
2023/10/24 09:57:39;;;;;;;17.88;8.55;;;22.30;99.90;;;;;;5076427;28;20041;-78
2023/10/24 10:00:25;;;;;;;21.40;8.20;;;22.20;99.90;;;;;;5088129;28;20031;-80
2023/10/24 10:02:56;;;;;;;16.83;6.82;;;21.50;99.90;;;;;;5087157;28;20032;-80
2023/10/24 10:05:24;;;;;;;20.30;7.22;;;21.50;99.90;;;;;;5090396;28;20463;-79
2023/10/24 10:07:53;;;;;;;20.55;7.88;;;21.60;99.90;;;;;;5086074;28;20036;-77
2023/10/24 10:10:22;;;;;;;15.63;6.97;;;21.90;99.90;;;;;;5084663;28;20075;-79
2023/10/24 10:12:59;;;;;;;22.45;7.35;;;22.00;99.90;;;;;;5085984;28;20035;-77
2023/10/24 10:15:43;;;;;;;16.88;7.32;;;22.20;99.90;;;;;;5065666;28;20043;-78
2023/10/24 10:18:18;;;;;;;24.27;6.30;;;22.80;99.80;;;;;;5086263;28;20036;-79
2023/10/24 10:21:27;;;;;;;21.58;6.45;;;23.20;98.60;;;;;;5067425;28;20105;-80
2023/10/24 10:24:15;;;;;;;17.92;7.03;;;23.60;98.00;;;;;;5086632;28;20131;-81
2023/10/24 10:27:42;;;;;;;18.88;6.80;;;23.60;98.00;;;;;;5087209;28;20032;-81
2023/10/24 10:30:37;;;;;;;18.23;6.78;;;23.60;97.20;;;;;;5037674;28;20386;-80
2023/10/24 10:33:22;;;;;;;15.98;6.40;;;23.70;97.10;;;;;;5084903;28;20430;-79
2023/10/24 10:35:56;;;;;;;19.02;7.28;;;24.20;96.20;;;;;;5088309;28;20105;-85
2023/10/24 10:38:48;;;;;;;21.55;7.32;;;24.40;95.80;;;;;;5085933;28;20111;-80
2023/10/24 10:41:26;;;;;;;19.90;6.90;;;24.50;95.30;;;;;;5067058;28;20432;-78
2023/10/24 10:44:36;;;;;;;18.42;8.02;;;24.30;94.80;;;;;;5083991;28;20050;-83
2023/10/24 10:47:13;;;;;;;16.33;6.38;;;24.60;94.10;;;;;;5085334;28;20036;-81
2023/10/24 10:49:50;;;;;;;15.85;5.80;;;24.20;93.70;;;;;;5083939;28;20427;-82
2023/10/24 10:52:49;;;;;;;18.23;6.18;;;24.10;94.20;;;;;;5085194;28;20040;-81
2023/10/24 10:55:35;;;;;;;14.20;5.95;;;24.40;93.90;;;;;;5086641;28;20044;-81
2023/10/24 10:58:43;;;;;;;22.10;10.27;;;24.90;92.80;;;;;;5088343;28;20054;-82
2023/10/24 11:01:33;;;;;;;19.52;9.02;;;24.80;92.60;;;;;;5027794;28;20131;-83
2023/10/24 11:04:13;;;;;;;17.63;6.28;;;24.60;92.20;;;;;;5071980;28;20114;-84
2023/10/24 11:06:51;;;;;;;13.85;5.72;;;24.70;91.80;;;;;;5084627;28;20402;-78
2023/10/24 11:09:38;;;;;;;16.30;5.80;;;24.70;91.20;;;;;;5089849;28;20402;-79
2023/10/24 11:12:21;;;;;;;16.52;4.80;;;24.80;91.10;;;;;;5065640;28;20141;-78
2023/10/24 11:15:07;;;;;;;22.02;4.80;;;25.50;90.20;;;;;;5070629;28;20043;-78
2023/10/24 11:17:34;;;;;;;20.02;4.55;;;25.80;87.40;;;;;;5091162;28;20039;-78
2023/10/24 11:20:05;;;;;;;15.95;4.82;;;25.70;85.50;;;;;;5085565;28;20420;-78
2023/10/24 11:22:47;;;;;;;15.43;4.28;;;25.70;85.20;;;;;;5084862;28;20036;-76
2023/10/24 11:25:32;;;;;;;19.02;4.57;;;25.70;84.20;;;;;;5085135;28;20033;-78
2023/10/24 11:28:08;;;;;;;14.13;4.40;;;25.90;83.70;;;;;;5084667;28;20028;-79
2023/10/24 11:30:35;;;;;;;19.20;4.97;;;26.80;82.70;;;;;;5087216;28;20047;-79
2023/10/24 11:33:03;;;;;;;12.90;4.78;;;27.20;78.90;;;;;;5084052;28;20302;-79
2023/10/24 11:35:30;;;;;;;15.20;4.03;;;28.10;76.90;;;;;;5086207;28;20055;-78
2023/10/24 11:37:59;;;;;;;16.20;4.30;;;28.80;74.80;;;;;;5083594;28;20033;-76
2023/10/24 11:40:26;;;;;;;14.65;5.35;;;29.40;72.80;;;;;;5084600;28;20047;-79
2023/10/24 11:43:03;;;;;;;13.23;4.38;;;28.60;70.00;;;;;;5081814;28;20059;-79
2023/10/24 11:45:30;;;;;;;11.32;3.75;;;28.00;71.50;;;;;;5086984;28;20063;-80
2023/10/24 11:47:58;;;;;;;14.27;5.43;;;28.40;72.30;;;;;;5066565;28;20045;-79
2023/10/24 11:50:47;;;;;;;12.63;4.20;;;28.50;72.00;;;;;;5086374;28;20048;-78
2023/10/24 11:53:22;;;;;;;19.92;4.88;;;28.40;73.40;;;;;;5067706;28;20036;-76
2023/10/24 11:55:51;;;;;;;15.93;4.63;;;27.80;74.80;;;;;;5087992;28;20044;-79
2023/10/24 11:58:20;;;;;;;18.77;4.50;;;27.10;76.20;;;;;;5090613;28;20043;-79
2023/10/24 12:00:47;;;;;;;18.52;6.45;;;26.50;76.10;;;;;;5087132;28;20041;-78
2023/10/24 12:03:14;;;;;;;19.48;5.55;;;26.30;76.80;;;;;;5089341;28;20082;-77
2023/10/24 12:05:55;;;;;;;10.27;3.63;;;26.10;78.40;;;;;;5090396;28;20356;-79
2023/10/24 12:08:24;;;;;;;16.48;4.80;;;26.40;77.00;;;;;;5081757;28;20028;-79
2023/10/24 12:10:55;;;;;;;13.38;4.72;;;26.50;77.80;;;;;;5077568;28;20444;-77
2023/10/24 12:13:25;;;;;;;14.65;4.85;;;26.70;78.30;;;;;;5081240;28;20369;-79
2023/10/24 12:16:10;;;;;;;13.05;3.80;;;26.60;77.00;;;;;;5082847;28;20485;-78
2023/10/24 12:18:38;;;;;;;10.85;4.25;;;26.50;76.70;;;;;;5085410;28;20118;-78
2023/10/24 12:21:08;;;;;;;14.77;3.97;;;26.50;78.10;;;;;;5082719;28;20040;-78
2023/10/24 12:23:36;;;;;;;16.35;4.32;;;26.60;77.70;;;;;;5084945;28;20074;-75
2023/10/24 12:26:20;;;;;;;13.15;3.83;;;26.70;76.40;;;;;;5079957;28;20514;-77
2023/10/24 12:28:47;;;;;;;16.17;3.88;;;26.70;75.50;;;;;;5083670;28;20063;-77
2023/10/24 12:31:15;;;;;;;17.35;5.05;;;27.50;75.30;;;;;;5077181;28;20050;-77
2023/10/24 12:33:42;;;;;;;17.08;3.70;;;27.90;73.30;;;;;;5078323;28;20024;-81
2023/10/24 12:36:28;;;;;;;11.82;4.10;;;28.40;72.50;;;;;;5080839;28;20059;-79
2023/10/24 12:38:55;;;;;;;18.33;4.28;;;28.80;72.00;;;;;;5084099;28;20060;-79
2023/10/24 12:41:24;;;;;;;10.77;4.28;;;28.50;71.70;;;;;;5046478;28;20135;-76
2023/10/24 12:43:51;;;;;;;14.60;3.83;;;28.50;71.90;;;;;;5082261;28;20125;-77
2023/10/24 12:46:18;;;;;;;15.13;4.63;;;28.50;71.70;;;;;;5084546;28;20422;-78
2023/10/24 12:48:46;;;;;;;12.45;4.15;;;28.50;71.20;;;;;;5082809;28;20040;-79
2023/10/24 12:51:27;;;;;;;13.63;3.97;;;28.10;72.50;;;;;;5080772;28;20078;-76